createdAt,value
2023-09-07T00:02:38.623Z,3.30
2023-09-07T00:05:41.868Z,3.30
2023-09-07T00:08:44.530Z,3.40
2023-09-07T00:11:46.604Z,3.50
2023-09-07T00:14:48.206Z,3.50
2023-09-07T00:17:50.519Z,3.58
2023-09-07T00:20:52.240Z,3.25
2023-09-07T00:23:53.870Z,3.40
2023-09-07T00:26:55.503Z,3.10
2023-09-07T00:29:57.056Z,3.15
2023-09-07T00:32:59.713Z,3.40
2023-09-07T00:36:03.341Z,3.17
2023-09-07T00:39:05.051Z,3.23
2023-09-07T00:42:06.823Z,3.28
2023-09-07T00:45:08.967Z,3.00
2023-09-07T00:48:13.900Z,3.33
2023-09-07T00:51:15.775Z,3.40
2023-09-07T00:54:17.958Z,3.17
2023-09-07T00:57:19.767Z,3.40
2023-09-07T01:00:22.083Z,3.20
2023-09-07T01:03:23.925Z,3.17
2023-09-07T01:07:01.979Z,3.10
2023-09-07T01:10:04.528Z,3.00
2023-09-07T01:13:06.161Z,3.00
2023-09-07T01:16:08.676Z,3.15
2023-09-07T01:19:11.186Z,2.90
2023-09-07T01:22:13.006Z,3.40
2023-09-07T01:25:14.837Z,3.00
2023-09-07T01:28:16.710Z,2.85
2023-09-07T01:31:18.560Z,3.00
2023-09-07T01:34:20.272Z,3.08
2023-09-07T01:37:21.884Z,3.13
2023-09-07T01:40:23.488Z,2.90
2023-09-07T01:43:25.400Z,3.00
2023-09-07T01:46:27.561Z,3.05
2023-09-07T01:49:29.450Z,3.00
2023-09-07T01:52:32.433Z,2.90
2023-09-07T01:55:34.196Z,3.30
2023-09-07T01:58:36.019Z,2.78
2023-09-07T02:01:38.767Z,3.20
2023-09-07T02:04:40.503Z,3.05
2023-09-07T02:07:42.302Z,3.00
2023-09-07T02:10:43.999Z,3.00
2023-09-07T02:13:48.581Z,2.85
2023-09-07T02:16:50.546Z,3.08
2023-09-07T02:19:52.287Z,2.80
2023-09-07T02:22:53.934Z,3.00
2023-09-07T02:25:55.530Z,2.97
2023-09-07T02:28:57.147Z,2.80
2023-09-07T02:31:59.488Z,2.83
2023-09-07T02:35:01.342Z,2.90
2023-09-07T02:38:03.021Z,3.10
2023-09-07T02:41:04.872Z,2.87
2023-09-07T02:44:06.866Z,2.55
2023-09-07T02:47:11.515Z,3.10
2023-09-07T02:50:14.484Z,2.90
2023-09-07T02:53:16.077Z,3.15
2023-09-07T02:56:17.897Z,3.27
2023-09-07T02:59:19.508Z,3.08
2023-09-07T03:02:21.144Z,2.70
2023-09-07T03:05:22.874Z,2.78
2023-09-07T03:08:26.066Z,2.90
2023-09-07T03:11:27.814Z,2.80
2023-09-07T03:14:31.252Z,3.13
2023-09-07T03:17:32.953Z,3.20
2023-09-07T03:20:35.362Z,3.20
2023-09-07T03:23:37.472Z,2.97
2023-09-07T03:26:39.289Z,2.90
2023-09-07T03:29:41.013Z,2.65
2023-09-07T03:32:42.765Z,2.70
2023-09-07T03:35:44.501Z,2.75
2023-09-07T03:38:46.285Z,2.90
2023-09-07T03:41:48.009Z,2.70
2023-09-07T03:44:49.644Z,2.75
2023-09-07T03:47:51.285Z,2.97
2023-09-07T03:50:53.258Z,2.70
2023-09-07T03:53:55.189Z,2.80
2023-09-07T03:56:56.802Z,2.60
2023-09-07T03:59:59.788Z,2.50
2023-09-07T04:03:01.465Z,3.08
2023-09-07T04:06:03.856Z,2.72
2023-09-07T04:09:06.068Z,2.92
2023-09-07T04:12:08.305Z,2.60
2023-09-07T04:15:10.823Z,2.47
2023-09-07T04:18:17.595Z,2.85
2023-09-07T04:21:19.346Z,2.70
2023-09-07T04:24:21.082Z,2.95
2023-09-07T04:27:22.962Z,2.80
2023-09-07T04:30:24.626Z,2.80
2023-09-07T04:33:26.284Z,2.90
2023-09-07T04:36:27.987Z,2.90
2023-09-07T04:39:29.550Z,2.42
2023-09-07T04:42:31.170Z,2.70
2023-09-07T04:45:32.825Z,2.80
2023-09-07T04:48:35.304Z,2.90
2023-09-07T04:51:37.051Z,2.67
2023-09-07T04:54:38.710Z,2.80
2023-09-07T04:57:40.423Z,2.87
2023-09-07T05:00:42.084Z,2.75
2023-09-07T05:03:43.766Z,2.78
2023-09-07T05:06:46.399Z,3.00
2023-09-07T05:09:49.945Z,3.08
2023-09-07T05:12:51.684Z,3.40
2023-09-07T05:15:55.056Z,3.10
2023-09-07T05:18:56.866Z,2.92
2023-09-07T05:21:58.697Z,3.03
2023-09-07T05:25:02.798Z,2.80
2023-09-07T05:28:05.296Z,3.23
2023-09-07T05:31:06.956Z,2.97
2023-09-07T05:34:08.646Z,3.35
2023-09-07T05:37:10.337Z,3.13
2023-09-07T05:40:12.702Z,2.88
2023-09-07T05:43:14.486Z,2.70
2023-09-07T05:46:16.503Z,2.92
2023-09-07T05:49:18.315Z,2.90
2023-09-07T05:52:20.187Z,2.70
2023-09-07T05:55:22.002Z,3.33
2023-09-07T05:58:23.684Z,2.87
2023-09-07T06:01:25.472Z,3.30
2023-09-07T06:04:28.414Z,3.08
2023-09-07T06:07:30.106Z,3.00
2023-09-07T06:10:33.272Z,3.00
2023-09-07T06:13:34.996Z,3.20
2023-09-07T06:16:36.755Z,3.28
2023-09-07T06:19:38.511Z,2.92
2023-09-07T06:22:40.357Z,3.00
2023-09-07T06:25:42.241Z,2.80
2023-09-07T06:28:44.472Z,2.97
2023-09-07T06:31:46.740Z,2.85
2023-09-07T06:34:48.648Z,2.70
2023-09-07T06:37:50.431Z,3.22
2023-09-07T06:40:52.103Z,3.15
2023-09-07T06:43:53.776Z,3.00
2023-09-07T06:46:55.521Z,3.17
2023-09-07T06:49:57.943Z,3.22
2023-09-07T06:52:59.616Z,3.08
2023-09-07T06:56:02.859Z,3.20
2023-09-07T06:59:04.568Z,3.53
2023-09-07T07:02:07.178Z,3.40
2023-09-07T07:05:09.621Z,3.53
2023-09-07T07:08:11.696Z,3.80
2023-09-07T07:11:13.448Z,3.70
2023-09-07T07:14:16.215Z,4.03
2023-09-07T07:17:20.399Z,3.80
2023-09-07T07:20:22.064Z,3.65
2023-09-07T07:23:23.752Z,4.00
2023-09-07T07:26:25.405Z,3.70
2023-09-07T07:29:27.034Z,3.53
2023-09-07T07:32:28.697Z,3.50
2023-09-07T07:35:33.990Z,3.50
2023-09-07T07:38:38.794Z,3.38
2023-09-07T07:41:42.022Z,3.65
2023-09-07T07:44:45.612Z,3.57
2023-09-07T07:47:47.814Z,3.65
2023-09-07T07:50:49.425Z,3.55
2023-09-07T07:53:51.126Z,3.75
2023-09-07T07:56:52.910Z,3.15
2023-09-07T07:59:56.984Z,3.40
2023-09-07T08:02:58.755Z,3.72
2023-09-07T08:06:00.470Z,3.80
2023-09-07T08:09:02.382Z,4.55
2023-09-07T08:12:04.568Z,4.22
2023-09-07T08:15:06.836Z,3.80
2023-09-07T08:18:10.174Z,3.95
2023-09-07T08:21:13.310Z,3.90
2023-09-07T08:24:14.938Z,3.75
2023-09-07T08:27:19.409Z,3.95
2023-09-07T08:30:23.829Z,3.93
2023-09-07T08:33:30.216Z,4.20
2023-09-07T08:36:35.864Z,3.95
2023-09-07T08:39:40.377Z,3.85
2023-09-07T08:42:42.464Z,3.92
2023-09-07T08:45:50.129Z,3.67
2023-09-07T08:48:52.342Z,3.92
2023-09-07T08:51:55.450Z,4.00
2023-09-07T08:54:59.684Z,4.28
2023-09-07T08:58:01.467Z,4.00
2023-09-07T09:04:10.011Z,3.80
2023-09-07T09:07:11.986Z,4.10
2023-09-07T09:10:13.672Z,3.95
2023-09-07T09:13:15.929Z,4.30
2023-09-07T09:16:19.112Z,4.10
2023-09-07T09:19:34.178Z,4.13
2023-09-07T09:22:36.705Z,3.97
2023-09-07T09:25:38.319Z,3.80
2023-09-07T09:28:39.994Z,4.28
2023-09-07T09:31:44.080Z,3.70
2023-09-07T09:34:46.269Z,4.22
2023-09-07T09:37:52.547Z,3.90
2023-09-07T09:40:54.819Z,3.72
2023-09-07T09:43:57.402Z,4.07
2023-09-07T09:47:00.911Z,3.70
2023-09-07T09:50:07.546Z,3.83
2023-09-07T09:53:09.785Z,3.70
2023-09-07T09:56:12.036Z,4.00
2023-09-07T09:59:15.557Z,3.40
2023-09-07T10:02:17.785Z,3.73
2023-09-07T10:05:20.306Z,3.50
2023-09-07T10:08:24.209Z,3.78
2023-09-07T10:11:38.824Z,3.85
2023-09-07T10:14:45.971Z,3.50
2023-09-07T10:17:51.102Z,3.50
2023-09-07T10:20:59.615Z,3.40
2023-09-07T10:24:01.658Z,3.35
2023-09-07T10:27:08.154Z,3.70
2023-09-07T10:30:23.832Z,3.45
2023-09-07T10:33:25.648Z,3.40
2023-09-07T10:36:28.740Z,3.55
2023-09-07T10:39:32.998Z,3.30
2023-09-07T10:42:34.618Z,3.40
2023-09-07T10:45:36.191Z,3.47
2023-09-07T10:48:37.927Z,3.27
2023-09-07T10:51:44.572Z,3.25
2023-09-07T10:54:46.642Z,3.58
2023-09-07T10:57:49.169Z,3.30
2023-09-07T11:00:53.304Z,3.40
2023-09-07T11:03:55.087Z,3.17
2023-09-07T11:06:56.947Z,3.20
2023-09-07T11:10:00.376Z,3.40
2023-09-07T11:13:06.158Z,3.53
2023-09-07T11:16:11.388Z,3.20
2023-09-07T11:19:16.278Z,3.43
2023-09-07T11:22:18.021Z,3.25
2023-09-07T11:25:20.542Z,3.30
2023-09-07T11:28:25.688Z,3.33
2023-09-07T11:31:27.446Z,3.00
2023-09-07T11:34:29.601Z,3.57
2023-09-07T11:37:32.288Z,3.33
2023-09-07T11:40:34.037Z,3.30
2023-09-07T11:43:35.957Z,3.13
2023-09-07T11:46:38.102Z,3.38
2023-09-07T11:49:39.976Z,3.50
2023-09-07T11:52:41.787Z,3.17
2023-09-07T11:55:44.662Z,3.35
2023-09-07T11:58:46.359Z,3.53
2023-09-07T12:01:48.111Z,3.40
2023-09-07T12:04:49.924Z,3.30
2023-09-07T12:07:51.681Z,3.53
2023-09-07T12:10:53.417Z,3.30
2023-09-07T12:13:55.165Z,3.25
2023-09-07T12:16:57.354Z,3.20
2023-09-07T12:19:59.442Z,3.03
2023-09-07T12:23:01.466Z,3.40
2023-09-07T12:26:05.350Z,3.70
2023-09-07T12:29:08.980Z,3.13
2023-09-07T12:32:10.758Z,3.72
2023-09-07T12:35:12.387Z,2.90
2023-09-07T12:38:18.553Z,3.35
2023-09-07T12:41:20.224Z,3.78
2023-09-07T12:44:22.230Z,3.25
2023-09-07T12:47:23.930Z,3.50
2023-09-07T12:50:25.514Z,2.93
2023-09-07T12:53:27.509Z,3.20
2023-09-07T12:56:29.209Z,3.22
2023-09-07T12:59:31.152Z,3.10
2023-09-07T13:02:33.241Z,3.10
2023-09-07T13:05:35.013Z,3.20
2023-09-07T13:08:36.983Z,3.22
2023-09-07T13:11:40.542Z,3.00
2023-09-07T13:14:42.274Z,3.10
2023-09-07T13:17:43.963Z,3.28
2023-09-07T13:20:46.483Z,3.20
2023-09-07T13:23:48.437Z,3.25
2023-09-07T13:26:53.152Z,3.40
2023-09-07T13:29:54.957Z,3.38
2023-09-07T13:32:56.769Z,3.03
2023-09-07T13:35:58.606Z,3.07
2023-09-07T13:39:00.642Z,3.10
2023-09-07T13:42:02.321Z,2.85
2023-09-07T13:45:04.161Z,3.30
2023-09-07T13:48:06.258Z,3.30
2023-09-07T13:51:08.522Z,3.20
2023-09-07T13:54:10.491Z,3.20
2023-09-07T13:57:12.176Z,2.95
2023-09-07T14:00:14.281Z,3.25
2023-09-07T14:03:16.104Z,3.22
2023-09-07T14:06:19.155Z,3.40
2023-09-07T14:09:22.576Z,3.03
2023-09-07T14:12:24.348Z,3.20
2023-09-07T14:15:26.005Z,3.47
2023-09-07T14:18:27.738Z,3.45
2023-09-07T14:21:29.813Z,3.13
2023-09-07T14:24:31.623Z,3.17
2023-09-07T14:27:33.512Z,3.17
2023-09-07T14:30:35.289Z,3.47
2023-09-07T14:33:42.728Z,3.20
2023-09-07T14:36:44.413Z,3.30
2023-09-07T14:39:48.758Z,3.10
2023-09-07T14:42:51.530Z,3.13
2023-09-07T14:45:53.418Z,2.97
2023-09-07T14:48:55.243Z,3.20
2023-09-07T14:51:56.916Z,3.10
2023-09-07T14:54:58.505Z,3.00
2023-09-07T14:58:00.497Z,3.20
2023-09-07T15:01:02.366Z,2.80
2023-09-07T15:04:04.079Z,3.00
2023-09-07T15:07:05.746Z,3.10
2023-09-07T15:10:07.848Z,2.90
2023-09-07T15:13:09.610Z,3.10
2023-09-07T15:16:12.033Z,3.05
2023-09-07T15:19:13.773Z,3.10
2023-09-07T15:22:15.678Z,3.10
2023-09-07T15:25:17.489Z,3.45
2023-09-07T15:28:19.797Z,3.40
2023-09-07T15:31:21.613Z,3.00
2023-09-07T15:34:23.282Z,3.35
2023-09-07T15:37:24.962Z,3.40
2023-09-07T15:40:26.680Z,3.30
2023-09-07T15:43:28.406Z,3.20
2023-09-07T15:46:30.233Z,3.45
2023-09-07T15:49:31.973Z,3.20
2023-09-07T15:52:36.522Z,3.27
2023-09-07T15:55:38.312Z,3.40
2023-09-07T15:58:40.052Z,3.22
2023-09-07T16:01:42.087Z,3.50
2023-09-07T16:04:43.800Z,3.40
2023-09-07T16:07:45.432Z,2.97
2023-09-07T16:10:47.028Z,3.30
2023-09-07T16:13:48.816Z,3.30
2023-09-07T16:16:50.590Z,3.20
2023-09-07T16:19:53.436Z,3.25
2023-09-07T16:22:55.218Z,3.30
2023-09-07T16:25:57.998Z,3.20
2023-09-07T16:28:59.834Z,3.20
2023-09-07T16:32:01.497Z,3.20
2023-09-07T16:35:03.133Z,3.00
2023-09-07T16:38:04.972Z,3.13
2023-09-07T16:41:07.350Z,3.15
2023-09-07T16:44:08.987Z,3.35
2023-09-07T16:47:10.740Z,3.45
2023-09-07T16:50:12.387Z,3.47
2023-09-07T16:53:14.031Z,3.30
2023-09-07T16:56:18.312Z,3.38
2023-09-07T17:02:24.863Z,3.10
2023-09-07T17:05:27.030Z,3.22
2023-09-07T17:08:28.759Z,3.30
2023-09-07T17:11:30.551Z,3.55
2023-09-07T17:14:32.690Z,3.33
2023-09-07T17:17:35.316Z,3.65
2023-09-07T17:20:37.905Z,3.33
2023-09-07T17:23:39.719Z,3.40
2023-09-07T17:26:41.435Z,3.70
2023-09-07T17:29:43.522Z,4.28
2023-09-07T17:32:45.229Z,4.45
2023-09-07T17:35:46.955Z,4.10
2023-09-07T17:38:56.018Z,3.50
2023-09-07T17:41:57.916Z,3.50
2023-09-07T17:44:59.681Z,3.30
2023-09-07T17:48:01.467Z,3.50
2023-09-07T17:51:04.212Z,3.08
2023-09-07T17:54:06.134Z,3.17
2023-09-07T17:57:08.384Z,3.22
2023-09-07T18:00:10.681Z,3.30
2023-09-07T18:03:12.400Z,3.80
2023-09-07T18:06:15.623Z,3.88
2023-09-07T18:09:17.546Z,3.20
2023-09-07T18:12:19.319Z,3.30
2023-09-07T18:15:21.039Z,3.30
2023-09-07T18:18:22.843Z,3.28
2023-09-07T18:21:24.564Z,3.65
2023-09-07T18:24:26.942Z,3.70
2023-09-07T18:27:29.169Z,3.03
2023-09-07T18:30:30.850Z,3.50
2023-09-07T18:33:35.143Z,3.50
2023-09-07T18:36:36.986Z,3.85
2023-09-07T18:39:38.676Z,3.57
2023-09-07T18:42:40.320Z,3.72
2023-09-07T18:45:41.981Z,3.85
2023-09-07T18:48:43.678Z,3.92
2023-09-07T18:51:45.337Z,3.67
2023-09-07T18:54:46.914Z,3.70
2023-09-07T18:57:48.689Z,3.40
2023-09-07T19:00:52.420Z,3.90
2023-09-07T19:03:55.466Z,3.60
2023-09-07T19:06:57.103Z,3.30
2023-09-07T19:09:58.786Z,3.53
2023-09-07T19:13:00.455Z,3.58
2023-09-07T19:16:02.174Z,3.58
2023-09-07T19:19:04.355Z,3.55
2023-09-07T19:22:06.135Z,4.25
2023-09-07T19:25:08.125Z,3.83
2023-09-07T19:28:12.488Z,4.30
2023-09-07T19:31:14.043Z,4.30
2023-09-07T19:34:15.812Z,5.03
2023-09-07T19:37:17.460Z,4.30
2023-09-07T19:40:19.191Z,3.93
2023-09-07T19:43:20.803Z,4.38
2023-09-07T19:46:22.544Z,3.70
2023-09-07T19:49:24.294Z,4.13
2023-09-07T19:52:25.900Z,4.13
2023-09-07T19:55:27.646Z,3.93
2023-09-07T19:58:29.239Z,3.90
2023-09-07T20:01:50.823Z,3.92
2023-09-07T20:04:52.492Z,4.13
2023-09-07T20:07:54.183Z,4.25
2023-09-07T20:10:55.776Z,4.20
2023-09-07T20:13:57.435Z,4.18
2023-09-07T20:16:59.580Z,4.78
2023-09-07T20:20:02.560Z,4.03
2023-09-07T20:23:04.412Z,4.05
2023-09-07T20:26:06.060Z,4.10
2023-09-07T20:29:09.235Z,4.03
2023-09-07T20:32:10.946Z,3.92
2023-09-07T20:35:12.783Z,3.78
2023-09-07T20:38:15.182Z,4.15
2023-09-07T20:41:17.058Z,3.80
2023-09-07T20:44:18.789Z,3.58
2023-09-07T20:47:21.831Z,3.85
2023-09-07T20:50:23.479Z,3.80
2023-09-07T20:53:25.152Z,3.47
2023-09-07T20:56:26.721Z,3.47
2023-09-07T20:59:31.544Z,3.63
2023-09-07T21:02:34.059Z,3.70
2023-09-07T21:05:35.996Z,3.70
2023-09-07T21:08:39.483Z,3.60
2023-09-07T21:11:41.087Z,3.40
2023-09-07T21:14:42.690Z,3.45
2023-09-07T21:17:45.402Z,3.50
2023-09-07T21:20:47.517Z,3.20
2023-09-07T21:23:50.231Z,3.42
2023-09-07T21:26:52.579Z,3.43
2023-09-07T21:29:54.400Z,3.60
2023-09-07T21:32:56.152Z,3.47
2023-09-07T21:35:57.938Z,3.60
2023-09-07T21:38:59.566Z,3.60
2023-09-07T21:42:01.404Z,3.60
2023-09-07T21:45:03.169Z,3.45
2023-09-07T21:48:05.403Z,4.00
2023-09-07T21:51:08.322Z,3.78
2023-09-07T21:54:10.425Z,3.47
2023-09-07T21:57:12.738Z,3.80
2023-09-07T22:00:17.853Z,3.40
2023-09-07T22:03:19.806Z,3.70
2023-09-07T22:06:25.389Z,3.80
2023-09-07T22:09:27.120Z,3.38
2023-09-07T22:12:28.804Z,3.80
2023-09-07T22:15:30.537Z,4.00
2023-09-07T22:18:32.841Z,3.88
2023-09-07T22:21:34.947Z,3.78
2023-09-07T22:24:36.705Z,3.72
2023-09-07T22:27:38.361Z,3.80
2023-09-07T22:30:40.424Z,3.83
2023-09-07T22:33:42.158Z,3.58
2023-09-07T22:36:43.859Z,3.60
2023-09-07T22:39:45.980Z,3.65
2023-09-07T22:42:47.626Z,3.80
2023-09-07T22:45:49.276Z,3.67
2023-09-07T22:48:51.020Z,3.65
2023-09-07T22:51:52.666Z,3.72
2023-09-07T22:54:54.400Z,3.60
2023-09-07T22:57:56.040Z,3.63
2023-09-07T23:00:57.734Z,4.13
2023-09-07T23:03:59.613Z,3.65
2023-09-07T23:07:01.369Z,3.80
2023-09-07T23:10:03.656Z,3.70
2023-09-07T23:13:07.526Z,3.80
2023-09-07T23:16:09.625Z,3.88
2023-09-07T23:19:11.426Z,4.32
2023-09-07T23:22:13.089Z,3.70
2023-09-07T23:25:14.729Z,3.83
2023-09-07T23:28:18.402Z,3.80
2023-09-07T23:31:23.135Z,3.75
2023-09-07T23:34:24.978Z,4.03
2023-09-07T23:37:26.621Z,3.80
2023-09-07T23:40:28.267Z,3.92
2023-09-07T23:43:29.889Z,3.87
2023-09-07T23:46:31.686Z,4.07
2023-09-07T23:49:34.930Z,4.00
2023-09-07T23:52:40.200Z,3.75
2023-09-07T23:55:41.869Z,3.80
2023-09-07T23:58:43.502Z,3.87
